sensor_id;sensor_type;location;lat;lon;timestamp;P1;durP1;ratioP1;P2;durP2;ratioP2
37641;SDS011;23486;51.956;5.888;2023-04-25T00:02:12;10.00;;;1.33;;
37641;SDS011;23486;51.956;5.888;2023-04-25T00:04:38;15.30;;;2.03;;
37641;SDS011;23486;51.956;5.888;2023-04-25T00:07:03;8.15;;;1.70;;
37641;SDS011;23486;51.956;5.888;2023-04-25T00:09:29;6.97;;;1.42;;
37641;SDS011;23486;51.956;5.888;2023-04-25T00:11:55;10.65;;;1.85;;
37641;SDS011;23486;51.956;5.888;2023-04-25T00:14:21;5.43;;;1.02;;
37641;SDS011;23486;51.956;5.888;2023-04-25T00:16:47;9.38;;;1.10;;
37641;SDS011;23486;51.956;5.888;2023-04-25T00:19:16;6.70;;;1.17;;
37641;SDS011;23486;51.956;5.888;2023-04-25T00:21:42;5.63;;;0.73;;
37641;SDS011;23486;51.956;5.888;2023-04-25T00:24:11;6.43;;;1.25;;
37641;SDS011;23486;51.956;5.888;2023-04-25T00:26:37;8.02;;;1.60;;
37641;SDS011;23486;51.956;5.888;2023-04-25T00:29:02;10.65;;;1.58;;
37641;SDS011;23486;51.956;5.888;2023-04-25T00:31:28;7.60;;;1.20;;
37641;SDS011;23486;51.956;5.888;2023-04-25T00:33:57;5.85;;;1.33;;
37641;SDS011;23486;51.956;5.888;2023-04-25T00:36:23;7.72;;;1.13;;
37641;SDS011;23486;51.956;5.888;2023-04-25T00:38:52;8.15;;;1.38;;
37641;SDS011;23486;51.956;5.888;2023-04-25T00:41:19;6.15;;;1.20;;
37641;SDS011;23486;51.956;5.888;2023-04-25T00:43:45;8.18;;;1.02;;
37641;SDS011;23486;51.956;5.888;2023-04-25T00:46:15;7.15;;;1.45;;
37641;SDS011;23486;51.956;5.888;2023-04-25T00:48:40;7.88;;;1.55;;
37641;SDS011;23486;51.956;5.888;2023-04-25T00:51:06;7.78;;;1.38;;
37641;SDS011;23486;51.956;5.888;2023-04-25T00:53:32;6.38;;;1.35;;
37641;SDS011;23486;51.956;5.888;2023-04-25T00:55:58;5.72;;;1.20;;
37641;SDS011;23486;51.956;5.888;2023-04-25T00:58:24;11.18;;;1.55;;
37641;SDS011;23486;51.956;5.888;2023-04-25T01:00:50;10.05;;;1.50;;
37641;SDS011;23486;51.956;5.888;2023-04-25T01:03:17;8.18;;;1.92;;
37641;SDS011;23486;51.956;5.888;2023-04-25T01:05:46;11.50;;;1.70;;
37641;SDS011;23486;51.956;5.888;2023-04-25T01:08:13;13.55;;;2.22;;
37641;SDS011;23486;51.956;5.888;2023-04-25T01:10:39;8.07;;;1.63;;
37641;SDS011;23486;51.956;5.888;2023-04-25T01:13:05;7.18;;;1.40;;
37641;SDS011;23486;51.956;5.888;2023-04-25T01:15:31;6.95;;;1.48;;
37641;SDS011;23486;51.956;5.888;2023-04-25T01:17:57;5.40;;;1.05;;
37641;SDS011;23486;51.956;5.888;2023-04-25T01:20:23;7.55;;;1.30;;
37641;SDS011;23486;51.956;5.888;2023-04-25T01:22:52;8.63;;;1.50;;
37641;SDS011;23486;51.956;5.888;2023-04-25T01:25:22;7.72;;;2.10;;
37641;SDS011;23486;51.956;5.888;2023-04-25T01:27:47;8.50;;;1.48;;
37641;SDS011;23486;51.956;5.888;2023-04-25T01:30:13;8.68;;;1.85;;
37641;SDS011;23486;51.956;5.888;2023-04-25T01:32:39;6.72;;;2.17;;
37641;SDS011;23486;51.956;5.888;2023-04-25T01:35:07;8.93;;;1.63;;
37641;SDS011;23486;51.956;5.888;2023-04-25T01:37:38;6.97;;;1.52;;
37641;SDS011;23486;51.956;5.888;2023-04-25T01:40:08;10.20;;;1.70;;
37641;SDS011;23486;51.956;5.888;2023-04-25T01:42:36;8.30;;;1.50;;
37641;SDS011;23486;51.956;5.888;2023-04-25T01:45:03;10.50;;;2.22;;
37641;SDS011;23486;51.956;5.888;2023-04-25T01:47:30;11.32;;;3.15;;
37641;SDS011;23486;51.956;5.888;2023-04-25T01:49:55;12.32;;;2.15;;
37641;SDS011;23486;51.956;5.888;2023-04-25T01:52:21;12.23;;;1.83;;
37641;SDS011;23486;51.956;5.888;2023-04-25T01:54:46;13.13;;;1.75;;
37641;SDS011;23486;51.956;5.888;2023-04-25T01:57:13;6.97;;;1.50;;
37641;SDS011;23486;51.956;5.888;2023-04-25T01:59:39;8.82;;;1.80;;
37641;SDS011;23486;51.956;5.888;2023-04-25T02:02:05;10.13;;;2.22;;
37641;SDS011;23486;51.956;5.888;2023-04-25T02:04:31;11.05;;;1.67;;
37641;SDS011;23486;51.956;5.888;2023-04-25T02:06:57;10.18;;;2.05;;
37641;SDS011;23486;51.956;5.888;2023-04-25T02:09:25;10.88;;;1.75;;
37641;SDS011;23486;51.956;5.888;2023-04-25T02:11:52;10.32;;;1.73;;
37641;SDS011;23486;51.956;5.888;2023-04-25T02:14:17;9.15;;;2.00;;
37641;SDS011;23486;51.956;5.888;2023-04-25T02:16:43;13.02;;;1.70;;
37641;SDS011;23486;51.956;5.888;2023-04-25T02:19:09;5.47;;;1.40;;
37641;SDS011;23486;51.956;5.888;2023-04-25T02:21:35;9.65;;;1.98;;
37641;SDS011;23486;51.956;5.888;2023-04-25T02:24:01;11.23;;;2.17;;
37641;SDS011;23486;51.956;5.888;2023-04-25T02:26:28;10.90;;;2.10;;
37641;SDS011;23486;51.956;5.888;2023-04-25T02:28:53;10.80;;;2.15;;
37641;SDS011;23486;51.956;5.888;2023-04-25T02:31:19;13.32;;;2.50;;
37641;SDS011;23486;51.956;5.888;2023-04-25T02:33:48;9.07;;;1.65;;
37641;SDS011;23486;51.956;5.888;2023-04-25T02:36:13;11.90;;;2.08;;
37641;SDS011;23486;51.956;5.888;2023-04-25T02:38:40;15.00;;;2.28;;
37641;SDS011;23486;51.956;5.888;2023-04-25T02:41:06;7.78;;;1.52;;
37641;SDS011;23486;51.956;5.888;2023-04-25T02:43:31;13.15;;;1.80;;
37641;SDS011;23486;51.956;5.888;2023-04-25T02:45:57;9.52;;;2.35;;
37641;SDS011;23486;51.956;5.888;2023-04-25T02:48:22;14.32;;;2.10;;
37641;SDS011;23486;51.956;5.888;2023-04-25T02:50:48;10.80;;;2.42;;
37641;SDS011;23486;51.956;5.888;2023-04-25T02:53:14;9.10;;;1.75;;
37641;SDS011;23486;51.956;5.888;2023-04-25T02:55:40;8.88;;;2.05;;
37641;SDS011;23486;51.956;5.888;2023-04-25T02:58:07;10.50;;;2.45;;
37641;SDS011;23486;51.956;5.888;2023-04-25T03:00:33;7.82;;;1.50;;
37641;SDS011;23486;51.956;5.888;2023-04-25T03:02:59;14.02;;;2.15;;
37641;SDS011;23486;51.956;5.888;2023-04-25T03:05:27;13.40;;;2.55;;
37641;SDS011;23486;51.956;5.888;2023-04-25T03:07:53;13.23;;;1.90;;
37641;SDS011;23486;51.956;5.888;2023-04-25T03:10:18;8.73;;;2.05;;
37641;SDS011;23486;51.956;5.888;2023-04-25T03:12:44;10.65;;;1.77;;
37641;SDS011;23486;51.956;5.888;2023-04-25T03:15:09;6.15;;;1.52;;
37641;SDS011;23486;51.956;5.888;2023-04-25T03:17:35;7.65;;;2.10;;
37641;SDS011;23486;51.956;5.888;2023-04-25T03:20:00;12.02;;;2.10;;
37641;SDS011;23486;51.956;5.888;2023-04-25T03:22:26;9.35;;;1.58;;
37641;SDS011;23486;51.956;5.888;2023-04-25T03:24:52;7.43;;;1.65;;
37641;SDS011;23486;51.956;5.888;2023-04-25T03:27:17;8.27;;;1.95;;
37641;SDS011;23486;51.956;5.888;2023-04-25T03:29:46;14.13;;;2.17;;
37641;SDS011;23486;51.956;5.888;2023-04-25T03:32:11;7.80;;;1.67;;
37641;SDS011;23486;51.956;5.888;2023-04-25T03:34:37;9.93;;;1.80;;
37641;SDS011;23486;51.956;5.888;2023-04-25T03:37:02;7.28;;;1.40;;
37641;SDS011;23486;51.956;5.888;2023-04-25T03:39:28;8.52;;;1.83;;
37641;SDS011;23486;51.956;5.888;2023-04-25T03:41:53;9.35;;;1.60;;
37641;SDS011;23486;51.956;5.888;2023-04-25T03:44:19;7.05;;;1.98;;
37641;SDS011;23486;51.956;5.888;2023-04-25T03:46:45;7.03;;;1.80;;
37641;SDS011;23486;51.956;5.888;2023-04-25T03:49:10;10.93;;;1.85;;
37641;SDS011;23486;51.956;5.888;2023-04-25T03:51:36;12.63;;;1.65;;
37641;SDS011;23486;51.956;5.888;2023-04-25T03:54:02;8.95;;;1.40;;
37641;SDS011;23486;51.956;5.888;2023-04-25T03:56:30;12.40;;;2.05;;
37641;SDS011;23486;51.956;5.888;2023-04-25T03:58:56;14.82;;;3.08;;
37641;SDS011;23486;51.956;5.888;2023-04-25T04:01:21;10.02;;;2.22;;
37641;SDS011;23486;51.956;5.888;2023-04-25T04:03:47;12.25;;;2.72;;
37641;SDS011;23486;51.956;5.888;2023-04-25T04:06:13;11.65;;;2.60;;
37641;SDS011;23486;51.956;5.888;2023-04-25T04:08:38;13.73;;;2.55;;
37641;SDS011;23486;51.956;5.888;2023-04-25T04:11:04;11.90;;;4.07;;
37641;SDS011;23486;51.956;5.888;2023-04-25T04:13:30;11.60;;;2.53;;
37641;SDS011;23486;51.956;5.888;2023-04-25T04:15:55;9.00;;;2.05;;
37641;SDS011;23486;51.956;5.888;2023-04-25T04:18:22;11.88;;;3.20;;
37641;SDS011;23486;51.956;5.888;2023-04-25T04:20:47;10.93;;;2.17;;
37641;SDS011;23486;51.956;5.888;2023-04-25T04:23:13;9.23;;;3.00;;
37641;SDS011;23486;51.956;5.888;2023-04-25T04:25:39;14.38;;;2.53;;
37641;SDS011;23486;51.956;5.888;2023-04-25T04:28:05;9.32;;;2.83;;
37641;SDS011;23486;51.956;5.888;2023-04-25T04:30:32;10.13;;;2.55;;
37641;SDS011;23486;51.956;5.888;2023-04-25T04:32:58;8.32;;;2.40;;
37641;SDS011;23486;51.956;5.888;2023-04-25T04:35:25;10.77;;;3.05;;
37641;SDS011;23486;51.956;5.888;2023-04-25T04:37:51;9.35;;;2.55;;
37641;SDS011;23486;51.956;5.888;2023-04-25T04:40:17;16.33;;;3.50;;
37641;SDS011;23486;51.956;5.888;2023-04-25T04:42:43;11.23;;;2.75;;
37641;SDS011;23486;51.956;5.888;2023-04-25T04:45:10;13.20;;;3.78;;
37641;SDS011;23486;51.956;5.888;2023-04-25T04:47:36;12.15;;;3.25;;
37641;SDS011;23486;51.956;5.888;2023-04-25T04:50:04;12.48;;;3.83;;
37641;SDS011;23486;51.956;5.888;2023-04-25T04:52:33;11.38;;;3.63;;
37641;SDS011;23486;51.956;5.888;2023-04-25T04:54:59;8.55;;;3.28;;
37641;SDS011;23486;51.956;5.888;2023-04-25T04:57:24;14.30;;;3.42;;
37641;SDS011;23486;51.956;5.888;2023-04-25T04:59:50;11.05;;;4.05;;
37641;SDS011;23486;51.956;5.888;2023-04-25T05:02:16;18.65;;;3.55;;
37641;SDS011;23486;51.956;5.888;2023-04-25T05:04:41;14.05;;;3.70;;
37641;SDS011;23486;51.956;5.888;2023-04-25T05:07:07;13.05;;;3.03;;
37641;SDS011;23486;51.956;5.888;2023-04-25T05:09:33;18.67;;;4.20;;
37641;SDS011;23486;51.956;5.888;2023-04-25T05:11:58;17.30;;;3.05;;
37641;SDS011;23486;51.956;5.888;2023-04-25T05:14:25;11.93;;;3.55;;
37641;SDS011;23486;51.956;5.888;2023-04-25T05:16:51;12.57;;;4.50;;
37641;SDS011;23486;51.956;5.888;2023-04-25T05:19:17;10.82;;;3.83;;
37641;SDS011;23486;51.956;5.888;2023-04-25T05:21:42;11.15;;;2.97;;
37641;SDS011;23486;51.956;5.888;2023-04-25T05:24:08;15.90;;;3.38;;
37641;SDS011;23486;51.956;5.888;2023-04-25T05:26:33;10.55;;;2.88;;
37641;SDS011;23486;51.956;5.888;2023-04-25T05:28:59;11.85;;;2.50;;
37641;SDS011;23486;51.956;5.888;2023-04-25T05:31:25;10.18;;;2.55;;
37641;SDS011;23486;51.956;5.888;2023-04-25T05:33:51;14.25;;;2.33;;
37641;SDS011;23486;51.956;5.888;2023-04-25T05:36:20;14.10;;;2.70;;
37641;SDS011;23486;51.956;5.888;2023-04-25T05:38:46;8.50;;;1.92;;
37641;SDS011;23486;51.956;5.888;2023-04-25T05:41:11;15.48;;;2.88;;
37641;SDS011;23486;51.956;5.888;2023-04-25T05:43:37;11.25;;;3.08;;
37641;SDS011;23486;51.956;5.888;2023-04-25T05:46:10;10.70;;;2.88;;
37641;SDS011;23486;51.956;5.888;2023-04-25T05:48:37;13.10;;;2.30;;
37641;SDS011;23486;51.956;5.888;2023-04-25T05:51:03;11.45;;;2.60;;
37641;SDS011;23486;51.956;5.888;2023-04-25T05:53:29;11.57;;;2.05;;
37641;SDS011;23486;51.956;5.888;2023-04-25T05:55:54;10.07;;;1.98;;
37641;SDS011;23486;51.956;5.888;2023-04-25T05:58:20;9.18;;;3.20;;
37641;SDS011;23486;51.956;5.888;2023-04-25T06:00:45;18.10;;;4.07;;
37641;SDS011;23486;51.956;5.888;2023-04-25T06:03:11;15.68;;;3.05;;
37641;SDS011;23486;51.956;5.888;2023-04-25T06:05:39;6.93;;;2.42;;
37641;SDS011;23486;51.956;5.888;2023-04-25T06:08:07;17.15;;;2.35;;
37641;SDS011;23486;51.956;5.888;2023-04-25T06:10:32;14.05;;;2.85;;
37641;SDS011;23486;51.956;5.888;2023-04-25T06:12:58;16.05;;;2.65;;
37641;SDS011;23486;51.956;5.888;2023-04-25T06:15:24;9.75;;;1.75;;
37641;SDS011;23486;51.956;5.888;2023-04-25T06:17:49;11.05;;;2.05;;
37641;SDS011;23486;51.956;5.888;2023-04-25T06:20:15;14.88;;;1.98;;
37641;SDS011;23486;51.956;5.888;2023-04-25T06:22:41;10.55;;;2.17;;
37641;SDS011;23486;51.956;5.888;2023-04-25T06:25:06;7.80;;;2.10;;
37641;SDS011;23486;51.956;5.888;2023-04-25T06:27:35;13.82;;;2.25;;
37641;SDS011;23486;51.956;5.888;2023-04-25T06:30:01;14.75;;;2.65;;
37641;SDS011;23486;51.956;5.888;2023-04-25T06:32:26;8.73;;;1.48;;
37641;SDS011;23486;51.956;5.888;2023-04-25T06:34:54;15.23;;;2.50;;
37641;SDS011;23486;51.956;5.888;2023-04-25T06:37:20;15.85;;;3.05;;
37641;SDS011;23486;51.956;5.888;2023-04-25T06:39:45;6.35;;;1.95;;
37641;SDS011;23486;51.956;5.888;2023-04-25T06:42:11;11.93;;;2.10;;
37641;SDS011;23486;51.956;5.888;2023-04-25T06:44:36;11.63;;;2.65;;
37641;SDS011;23486;51.956;5.888;2023-04-25T06:47:02;15.43;;;7.40;;
37641;SDS011;23486;51.956;5.888;2023-04-25T06:49:28;17.00;;;6.28;;
37641;SDS011;23486;51.956;5.888;2023-04-25T06:51:53;13.75;;;3.17;;
37641;SDS011;23486;51.956;5.888;2023-04-25T06:54:19;11.73;;;3.10;;
37641;SDS011;23486;51.956;5.888;2023-04-25T06:56:48;10.15;;;2.28;;
37641;SDS011;23486;51.956;5.888;2023-04-25T06:59:14;11.55;;;2.22;;
37641;SDS011;23486;51.956;5.888;2023-04-25T07:01:40;6.15;;;1.70;;
37641;SDS011;23486;51.956;5.888;2023-04-25T07:04:05;8.30;;;1.65;;
37641;SDS011;23486;51.956;5.888;2023-04-25T07:06:31;17.30;;;2.28;;
37641;SDS011;23486;51.956;5.888;2023-04-25T07:08:57;12.13;;;2.25;;
37641;SDS011;23486;51.956;5.888;2023-04-25T07:11:25;12.90;;;1.98;;
37641;SDS011;23486;51.956;5.888;2023-04-25T07:13:51;9.45;;;2.28;;
37641;SDS011;23486;51.956;5.888;2023-04-25T07:16:20;9.80;;;1.92;;
37641;SDS011;23486;51.956;5.888;2023-04-25T07:18:45;7.20;;;1.42;;
37641;SDS011;23486;51.956;5.888;2023-04-25T07:21:11;11.23;;;1.83;;
37641;SDS011;23486;51.956;5.888;2023-04-25T07:23:36;8.20;;;1.35;;
37641;SDS011;23486;51.956;5.888;2023-04-25T07:26:05;7.15;;;1.70;;
37641;SDS011;23486;51.956;5.888;2023-04-25T07:28:31;5.80;;;1.30;;
37641;SDS011;23486;51.956;5.888;2023-04-25T07:30:56;9.38;;;1.33;;
37641;SDS011;23486;51.956;5.888;2023-04-25T07:33:23;7.20;;;0.85;;
37641;SDS011;23486;51.956;5.888;2023-04-25T07:35:48;10.95;;;1.30;;
37641;SDS011;23486;51.956;5.888;2023-04-25T07:38:15;13.10;;;1.42;;
37641;SDS011;23486;51.956;5.888;2023-04-25T07:40:40;11.65;;;1.15;;
37641;SDS011;23486;51.956;5.888;2023-04-25T07:43:06;8.93;;;1.40;;
37641;SDS011;23486;51.956;5.888;2023-04-25T07:45:31;8.20;;;1.90;;
37641;SDS011;23486;51.956;5.888;2023-04-25T07:47:57;8.55;;;0.98;;
37641;SDS011;23486;51.956;5.888;2023-04-25T07:50:23;6.68;;;0.80;;
37641;SDS011;23486;51.956;5.888;2023-04-25T07:52:48;9.02;;;0.90;;
37641;SDS011;23486;51.956;5.888;2023-04-25T07:55:14;11.77;;;1.00;;
37641;SDS011;23486;51.956;5.888;2023-04-25T07:57:40;9.65;;;0.90;;
37641;SDS011;23486;51.956;5.888;2023-04-25T08:00:05;7.28;;;1.00;;
37641;SDS011;23486;51.956;5.888;2023-04-25T08:02:34;9.80;;;1.38;;
37641;SDS011;23486;51.956;5.888;2023-04-25T08:05:01;10.07;;;0.90;;
37641;SDS011;23486;51.956;5.888;2023-04-25T08:07:27;6.45;;;0.77;;
37641;SDS011;23486;51.956;5.888;2023-04-25T08:09:53;11.35;;;0.95;;
37641;SDS011;23486;51.956;5.888;2023-04-25T08:12:22;7.07;;;0.90;;
37641;SDS011;23486;51.956;5.888;2023-04-25T08:14:48;9.65;;;0.88;;
37641;SDS011;23486;51.956;5.888;2023-04-25T08:17:13;7.93;;;0.65;;
37641;SDS011;23486;51.956;5.888;2023-04-25T08:19:40;5.72;;;0.68;;
37641;SDS011;23486;51.956;5.888;2023-04-25T08:22:06;5.72;;;0.55;;
37641;SDS011;23486;51.956;5.888;2023-04-25T08:24:34;9.60;;;0.50;;
37641;SDS011;23486;51.956;5.888;2023-04-25T08:26:59;6.05;;;0.65;;
37641;SDS011;23486;51.956;5.888;2023-04-25T08:29:25;7.00;;;0.50;;
37641;SDS011;23486;51.956;5.888;2023-04-25T08:31:51;4.85;;;0.50;;
37641;SDS011;23486;51.956;5.888;2023-04-25T08:34:18;5.78;;;0.68;;
37641;SDS011;23486;51.956;5.888;2023-04-25T08:36:43;7.95;;;0.30;;
37641;SDS011;23486;51.956;5.888;2023-04-25T08:39:09;4.10;;;0.40;;
37641;SDS011;23486;51.956;5.888;2023-04-25T08:41:38;9.38;;;0.80;;
37641;SDS011;23486;51.956;5.888;2023-04-25T08:44:05;5.65;;;0.47;;
37641;SDS011;23486;51.956;5.888;2023-04-25T08:46:34;5.03;;;0.50;;
37641;SDS011;23486;51.956;5.888;2023-04-25T08:49:02;6.30;;;0.50;;
37641;SDS011;23486;51.956;5.888;2023-04-25T08:51:30;8.63;;;0.50;;
37641;SDS011;23486;51.956;5.888;2023-04-25T08:53:57;5.97;;;0.55;;
37641;SDS011;23486;51.956;5.888;2023-04-25T08:56:47;4.78;;;0.63;;
37641;SDS011;23486;51.956;5.888;2023-04-25T08:59:14;6.47;;;0.60;;
37641;SDS011;23486;51.956;5.888;2023-04-25T09:01:39;6.25;;;0.60;;
37641;SDS011;23486;51.956;5.888;2023-04-25T09:04:05;12.23;;;0.70;;
37641;SDS011;23486;51.956;5.888;2023-04-25T09:06:31;6.00;;;0.40;;
37641;SDS011;23486;51.956;5.888;2023-04-25T09:09:04;5.60;;;0.65;;
37641;SDS011;23486;51.956;5.888;2023-04-25T09:11:34;6.10;;;0.50;;
37641;SDS011;23486;51.956;5.888;2023-04-25T09:14:10;9.52;;;0.63;;
37641;SDS011;23486;51.956;5.888;2023-04-25T09:19:36;6.75;;;0.85;;
37641;SDS011;23486;51.956;5.888;2023-04-25T09:22:04;8.13;;;0.50;;
37641;SDS011;23486;51.956;5.888;2023-04-25T09:24:31;8.73;;;0.40;;
37641;SDS011;23486;51.956;5.888;2023-04-25T09:26:58;7.10;;;0.60;;
37641;SDS011;23486;51.956;5.888;2023-04-25T09:29:34;3.97;;;0.40;;
37641;SDS011;23486;51.956;5.888;2023-04-25T09:34:42;5.05;;;0.47;;
37641;SDS011;23486;51.956;5.888;2023-04-25T09:37:10;6.30;;;0.50;;
37641;SDS011;23486;51.956;5.888;2023-04-25T09:39:37;7.38;;;0.60;;
37641;SDS011;23486;51.956;5.888;2023-04-25T09:42:06;5.22;;;0.47;;
37641;SDS011;23486;51.956;5.888;2023-04-25T09:44:35;6.85;;;0.50;;
37641;SDS011;23486;51.956;5.888;2023-04-25T09:47:10;4.40;;;0.50;;
37641;SDS011;23486;51.956;5.888;2023-04-25T09:49:38;4.57;;;0.65;;
37641;SDS011;23486;51.956;5.888;2023-04-25T09:52:06;6.88;;;1.13;;
37641;SDS011;23486;51.956;5.888;2023-04-25T09:54:35;6.35;;;0.40;;
37641;SDS011;23486;51.956;5.888;2023-04-25T09:57:04;6.03;;;0.47;;
37641;SDS011;23486;51.956;5.888;2023-04-25T09:59:47;4.07;;;0.40;;
37641;SDS011;23486;51.956;5.888;2023-04-25T10:02:18;3.03;;;0.30;;
37641;SDS011;23486;51.956;5.888;2023-04-25T10:04:47;6.18;;;0.40;;
37641;SDS011;23486;51.956;5.888;2023-04-25T10:07:14;5.70;;;0.40;;
37641;SDS011;23486;51.956;5.888;2023-04-25T10:09:39;6.30;;;0.50;;
37641;SDS011;23486;51.956;5.888;2023-04-25T10:12:07;4.57;;;0.40;;
37641;SDS011;23486;51.956;5.888;2023-04-25T10:14:33;5.38;;;0.52;;
37641;SDS011;23486;51.956;5.888;2023-04-25T10:17:00;5.63;;;0.63;;
37641;SDS011;23486;51.956;5.888;2023-04-25T10:19:26;4.30;;;0.50;;
37641;SDS011;23486;51.956;5.888;2023-04-25T10:24:29;6.47;;;1.02;;
37641;SDS011;23486;51.956;5.888;2023-04-25T10:26:55;4.40;;;0.30;;
37641;SDS011;23486;51.956;5.888;2023-04-25T10:29:22;8.13;;;0.40;;
37641;SDS011;23486;51.956;5.888;2023-04-25T10:31:49;4.53;;;0.55;;
37641;SDS011;23486;51.956;5.888;2023-04-25T10:34:18;4.22;;;0.20;;
37641;SDS011;23486;51.956;5.888;2023-04-25T10:36:51;3.97;;;0.30;;
37641;SDS011;23486;51.956;5.888;2023-04-25T10:39:24;2.67;;;0.20;;
37641;SDS011;23486;51.956;5.888;2023-04-25T10:44:20;7.18;;;0.50;;
37641;SDS011;23486;51.956;5.888;2023-04-25T10:46:45;4.45;;;0.30;;
37641;SDS011;23486;51.956;5.888;2023-04-25T10:49:14;5.55;;;0.40;;
37641;SDS011;23486;51.956;5.888;2023-04-25T10:52:16;9.80;;;0.50;;
37641;SDS011;23486;51.956;5.888;2023-04-25T10:57:08;4.90;;;0.30;;
37641;SDS011;23486;51.956;5.888;2023-04-25T11:00:07;4.90;;;0.35;;
37641;SDS011;23486;51.956;5.888;2023-04-25T11:02:37;7.55;;;0.35;;
37641;SDS011;23486;51.956;5.888;2023-04-25T11:05:08;3.15;;;0.32;;
37641;SDS011;23486;51.956;5.888;2023-04-25T11:07:45;3.20;;;0.30;;
37641;SDS011;23486;51.956;5.888;2023-04-25T11:10:16;7.63;;;0.38;;
37641;SDS011;23486;51.956;5.888;2023-04-25T11:12:49;2.67;;;0.22;;
37641;SDS011;23486;51.956;5.888;2023-04-25T11:15:15;4.15;;;0.40;;
37641;SDS011;23486;51.956;5.888;2023-04-25T11:17:41;3.63;;;0.30;;
37641;SDS011;23486;51.956;5.888;2023-04-25T11:20:08;2.03;;;0.35;;
37641;SDS011;23486;51.956;5.888;2023-04-25T11:22:36;4.57;;;0.30;;
37641;SDS011;23486;51.956;5.888;2023-04-25T11:25:05;6.60;;;0.40;;
37641;SDS011;23486;51.956;5.888;2023-04-25T11:27:32;4.65;;;0.65;;
37641;SDS011;23486;51.956;5.888;2023-04-25T11:29:58;1.95;;;0.40;;
37641;SDS011;23486;51.956;5.888;2023-04-25T11:32:23;3.38;;;0.68;;
37641;SDS011;23486;51.956;5.888;2023-04-25T11:34:49;3.35;;;0.30;;
37641;SDS011;23486;51.956;5.888;2023-04-25T11:37:15;3.28;;;0.30;;
37641;SDS011;23486;51.956;5.888;2023-04-25T11:39:44;4.90;;;0.30;;
37641;SDS011;23486;51.956;5.888;2023-04-25T11:42:13;3.63;;;0.28;;
37641;SDS011;23486;51.956;5.888;2023-04-25T11:44:39;3.60;;;0.25;;
37641;SDS011;23486;51.956;5.888;2023-04-25T11:47:05;2.13;;;0.30;;
37641;SDS011;23486;51.956;5.888;2023-04-25T11:49:31;3.53;;;0.40;;
37641;SDS011;23486;51.956;5.888;2023-04-25T11:52:00;1.77;;;0.20;;
37641;SDS011;23486;51.956;5.888;2023-04-25T11:54:25;4.65;;;0.30;;
37641;SDS011;23486;51.956;5.888;2023-04-25T11:56:51;4.30;;;0.65;;
37641;SDS011;23486;51.956;5.888;2023-04-25T11:59:16;2.33;;;0.30;;
37641;SDS011;23486;51.956;5.888;2023-04-25T12:01:49;3.00;;;0.40;;
37641;SDS011;23486;51.956;5.888;2023-04-25T12:04:19;2.58;;;0.25;;
37641;SDS011;23486;51.956;5.888;2023-04-25T12:06:46;3.53;;;0.20;;
37641;SDS011;23486;51.956;5.888;2023-04-25T12:09:14;3.35;;;0.30;;
37641;SDS011;23486;51.956;5.888;2023-04-25T12:14:09;5.75;;;0.30;;
37641;SDS011;23486;51.956;5.888;2023-04-25T12:19:08;3.53;;;0.40;;
37641;SDS011;23486;51.956;5.888;2023-04-25T12:21:36;3.88;;;0.30;;
37641;SDS011;23486;51.956;5.888;2023-04-25T12:24:12;6.30;;;0.40;;
37641;SDS011;23486;51.956;5.888;2023-04-25T12:26:46;4.07;;;0.38;;
37641;SDS011;23486;51.956;5.888;2023-04-25T12:29:18;3.13;;;0.30;;
37641;SDS011;23486;51.956;5.888;2023-04-25T12:31:45;2.60;;;0.30;;
37641;SDS011;23486;51.956;5.888;2023-04-25T12:34:14;2.15;;;0.20;;
37641;SDS011;23486;51.956;5.888;2023-04-25T12:36:40;6.13;;;0.60;;
37641;SDS011;23486;51.956;5.888;2023-04-25T12:39:06;2.78;;;0.40;;
37641;SDS011;23486;51.956;5.888;2023-04-25T12:41:32;5.38;;;0.30;;
37641;SDS011;23486;51.956;5.888;2023-04-25T12:43:57;4.40;;;0.50;;
37641;SDS011;23486;51.956;5.888;2023-04-25T12:46:23;3.70;;;0.30;;
37641;SDS011;23486;51.956;5.888;2023-04-25T12:48:49;3.45;;;0.50;;
37641;SDS011;23486;51.956;5.888;2023-04-25T12:51:15;5.63;;;0.60;;
37641;SDS011;23486;51.956;5.888;2023-04-25T12:53:40;5.93;;;0.40;;
37641;SDS011;23486;51.956;5.888;2023-04-25T12:56:06;4.82;;;0.40;;
37641;SDS011;23486;51.956;5.888;2023-04-25T12:58:33;3.45;;;0.35;;
37641;SDS011;23486;51.956;5.888;2023-04-25T13:00:59;5.65;;;0.30;;
37641;SDS011;23486;51.956;5.888;2023-04-25T13:03:24;4.30;;;0.30;;
37641;SDS011;23486;51.956;5.888;2023-04-25T13:05:50;4.68;;;0.35;;
37641;SDS011;23486;51.956;5.888;2023-04-25T13:08:17;5.60;;;0.85;;
37641;SDS011;23486;51.956;5.888;2023-04-25T13:10:43;6.82;;;0.50;;
37641;SDS011;23486;51.956;5.888;2023-04-25T13:13:09;2.05;;;0.30;;
37641;SDS011;23486;51.956;5.888;2023-04-25T13:15:35;2.50;;;0.30;;
37641;SDS011;23486;51.956;5.888;2023-04-25T13:18:01;4.50;;;0.30;;
37641;SDS011;23486;51.956;5.888;2023-04-25T13:20:28;2.22;;;0.30;;
37641;SDS011;23486;51.956;5.888;2023-04-25T13:22:53;6.10;;;0.40;;
37641;SDS011;23486;51.956;5.888;2023-04-25T13:25:20;4.10;;;0.40;;
37641;SDS011;23486;51.956;5.888;2023-04-25T13:27:48;4.88;;;0.40;;
37641;SDS011;23486;51.956;5.888;2023-04-25T13:30:13;3.45;;;0.30;;
37641;SDS011;23486;51.956;5.888;2023-04-25T13:32:39;6.38;;;0.60;;
37641;SDS011;23486;51.956;5.888;2023-04-25T13:35:09;4.32;;;0.38;;
37641;SDS011;23486;51.956;5.888;2023-04-25T13:37:37;6.22;;;0.47;;
37641;SDS011;23486;51.956;5.888;2023-04-25T13:40:04;3.05;;;0.30;;
37641;SDS011;23486;51.956;5.888;2023-04-25T13:42:33;3.95;;;0.30;;
37641;SDS011;23486;51.956;5.888;2023-04-25T13:44:59;4.05;;;0.32;;
37641;SDS011;23486;51.956;5.888;2023-04-25T13:47:25;3.92;;;0.40;;
37641;SDS011;23486;51.956;5.888;2023-04-25T13:49:51;3.70;;;0.30;;
37641;SDS011;23486;51.956;5.888;2023-04-25T13:52:17;4.55;;;0.40;;
37641;SDS011;23486;51.956;5.888;2023-04-25T13:54:42;2.85;;;0.40;;
37641;SDS011;23486;51.956;5.888;2023-04-25T13:57:08;9.18;;;0.43;;
37641;SDS011;23486;51.956;5.888;2023-04-25T13:59:35;3.55;;;0.20;;
37641;SDS011;23486;51.956;5.888;2023-04-25T14:02:04;3.80;;;0.30;;
37641;SDS011;23486;51.956;5.888;2023-04-25T14:04:30;3.42;;;0.40;;
37641;SDS011;23486;51.956;5.888;2023-04-25T14:06:56;4.75;;;0.40;;
37641;SDS011;23486;51.956;5.888;2023-04-25T14:09:23;2.13;;;0.20;;
37641;SDS011;23486;51.956;5.888;2023-04-25T14:11:53;2.50;;;0.30;;
37641;SDS011;23486;51.956;5.888;2023-04-25T14:14:19;4.22;;;0.40;;
37641;SDS011;23486;51.956;5.888;2023-04-25T14:16:46;3.83;;;0.40;;
37641;SDS011;23486;51.956;5.888;2023-04-25T14:19:15;3.70;;;0.32;;
37641;SDS011;23486;51.956;5.888;2023-04-25T14:21:41;5.57;;;0.40;;
37641;SDS011;23486;51.956;5.888;2023-04-25T14:24:10;5.05;;;0.38;;
37641;SDS011;23486;51.956;5.888;2023-04-25T14:26:36;2.35;;;0.30;;
37641;SDS011;23486;51.956;5.888;2023-04-25T14:29:05;7.28;;;0.40;;
37641;SDS011;23486;51.956;5.888;2023-04-25T14:31:32;6.07;;;0.68;;
37641;SDS011;23486;51.956;5.888;2023-04-25T14:33:58;3.75;;;0.60;;
37641;SDS011;23486;51.956;5.888;2023-04-25T14:36:24;3.88;;;0.40;;
37641;SDS011;23486;51.956;5.888;2023-04-25T14:38:51;4.10;;;0.30;;
37641;SDS011;23486;51.956;5.888;2023-04-25T14:41:16;2.35;;;0.20;;
37641;SDS011;23486;51.956;5.888;2023-04-25T14:43:42;3.78;;;0.30;;
37641;SDS011;23486;51.956;5.888;2023-04-25T14:46:08;3.83;;;0.50;;
37641;SDS011;23486;51.956;5.888;2023-04-25T14:48:34;2.92;;;0.30;;
37641;SDS011;23486;51.956;5.888;2023-04-25T14:51:00;2.65;;;0.38;;
37641;SDS011;23486;51.956;5.888;2023-04-25T14:53:26;3.15;;;0.20;;
37641;SDS011;23486;51.956;5.888;2023-04-25T14:55:52;3.05;;;0.20;;
37641;SDS011;23486;51.956;5.888;2023-04-25T14:58:18;2.20;;;0.20;;
37641;SDS011;23486;51.956;5.888;2023-04-25T15:00:45;3.55;;;0.30;;